sensor_id;sensor_type;location;lat;lon;timestamp;temperature;humidity
65478;SHT31;53678;39.642;22.430;2022-11-09T00:00:51;12.88;90.24
65478;SHT31;53678;39.642;22.430;2022-11-09T00:03:17;12.97;90.19
65478;SHT31;53678;39.642;22.430;2022-11-09T00:05:53;13.03;90.04
65478;SHT31;53678;39.642;22.430;2022-11-09T00:08:20;12.98;89.70
65478;SHT31;53678;39.642;22.430;2022-11-09T00:10:45;12.83;90.07
65478;SHT31;53678;39.642;22.430;2022-11-09T00:13:11;12.90;90.32
65478;SHT31;53678;39.642;22.430;2022-11-09T00:15:37;12.90;90.33
65478;SHT31;53678;39.642;22.430;2022-11-09T00:18:03;12.94;89.95
65478;SHT31;53678;39.642;22.430;2022-11-09T00:20:29;12.81;90.13
65478;SHT31;53678;39.642;22.430;2022-11-09T00:22:55;12.72;90.66
65478;SHT31;53678;39.642;22.430;2022-11-09T00:25:21;12.77;90.64
65478;SHT31;53678;39.642;22.430;2022-11-09T00:27:47;12.67;91.53
65478;SHT31;53678;39.642;22.430;2022-11-09T00:30:13;12.64;91.15
65478;SHT31;53678;39.642;22.430;2022-11-09T00:32:40;12.53;90.77
65478;SHT31;53678;39.642;22.430;2022-11-09T00:35:06;12.32;91.77
65478;SHT31;53678;39.642;22.430;2022-11-09T00:37:33;12.43;91.00
65478;SHT31;53678;39.642;22.430;2022-11-09T00:39:59;12.25;91.31
65478;SHT31;53678;39.642;22.430;2022-11-09T00:42:27;12.22;91.56
65478;SHT31;53678;39.642;22.430;2022-11-09T00:44:52;12.21;91.58
65478;SHT31;53678;39.642;22.430;2022-11-09T00:47:18;12.25;91.46
65478;SHT31;53678;39.642;22.430;2022-11-09T00:49:45;12.36;91.11
65478;SHT31;53678;39.642;22.430;2022-11-09T00:52:11;12.45;90.66
65478;SHT31;53678;39.642;22.430;2022-11-09T00:54:37;12.42;90.23
65478;SHT31;53678;39.642;22.430;2022-11-09T00:57:03;12.47;90.55
65478;SHT31;53678;39.642;22.430;2022-11-09T00:59:29;12.53;90.13
65478;SHT31;53678;39.642;22.430;2022-11-09T01:01:55;12.53;89.59
65478;SHT31;53678;39.642;22.430;2022-11-09T01:04:20;12.59;89.72
65478;SHT31;53678;39.642;22.430;2022-11-09T01:06:46;12.50;89.57
65478;SHT31;53678;39.642;22.430;2022-11-09T01:09:12;12.45;89.83
65478;SHT31;53678;39.642;22.430;2022-11-09T01:11:38;12.57;89.68
65478;SHT31;53678;39.642;22.430;2022-11-09T01:14:04;12.64;88.92
65478;SHT31;53678;39.642;22.430;2022-11-09T01:16:30;12.66;89.05
65478;SHT31;53678;39.642;22.430;2022-11-09T01:18:56;12.55;88.84
65478;SHT31;53678;39.642;22.430;2022-11-09T01:21:24;12.64;89.37
65478;SHT31;53678;39.642;22.430;2022-11-09T01:23:50;12.74;89.03
65478;SHT31;53678;39.642;22.430;2022-11-09T01:26:16;12.81;88.72
65478;SHT31;53678;39.642;22.430;2022-11-09T01:28:42;12.87;88.63
65478;SHT31;53678;39.642;22.430;2022-11-09T01:31:19;12.95;88.66
65478;SHT31;53678;39.642;22.430;2022-11-09T01:33:45;12.95;88.57
65478;SHT31;53678;39.642;22.430;2022-11-09T01:36:14;13.04;88.56
65478;SHT31;53678;39.642;22.430;2022-11-09T01:38:40;13.03;88.70
65478;SHT31;53678;39.642;22.430;2022-11-09T01:41:12;12.95;89.15
65478;SHT31;53678;39.642;22.430;2022-11-09T01:43:38;13.01;89.15
65478;SHT31;53678;39.642;22.430;2022-11-09T01:48:57;13.12;88.66
65478;SHT31;53678;39.642;22.430;2022-11-09T01:51:32;13.05;89.02
65478;SHT31;53678;39.642;22.430;2022-11-09T01:54:09;13.07;88.69
65478;SHT31;53678;39.642;22.430;2022-11-09T01:56:36;13.05;88.82
65478;SHT31;53678;39.642;22.430;2022-11-09T01:59:06;13.00;89.28
65478;SHT31;53678;39.642;22.430;2022-11-09T02:01:33;13.07;89.78
65478;SHT31;53678;39.642;22.430;2022-11-09T02:04:06;13.05;89.33
65478;SHT31;53678;39.642;22.430;2022-11-09T02:06:33;12.84;90.08
65478;SHT31;53678;39.642;22.430;2022-11-09T02:09:09;12.74;90.18
65478;SHT31;53678;39.642;22.430;2022-11-09T02:11:37;12.79;90.56
65478;SHT31;53678;39.642;22.430;2022-11-09T02:14:04;12.83;89.88
65478;SHT31;53678;39.642;22.430;2022-11-09T02:16:31;12.83;90.07
65478;SHT31;53678;39.642;22.430;2022-11-09T02:18:58;12.87;90.45
65478;SHT31;53678;39.642;22.430;2022-11-09T02:21:30;12.95;89.95
65478;SHT31;53678;39.642;22.430;2022-11-09T02:23:57;13.12;89.41
65478;SHT31;53678;39.642;22.430;2022-11-09T02:26:35;13.11;88.45
65478;SHT31;53678;39.642;22.430;2022-11-09T02:29:06;13.00;89.16
65478;SHT31;53678;39.642;22.430;2022-11-09T02:31:37;13.01;89.49
65478;SHT31;53678;39.642;22.430;2022-11-09T02:34:09;12.79;89.97
65478;SHT31;53678;39.642;22.430;2022-11-09T02:36:36;12.70;90.75
65478;SHT31;53678;39.642;22.430;2022-11-09T02:39:05;12.74;90.66
65478;SHT31;53678;39.642;22.430;2022-11-09T02:41:33;12.66;91.55
65478;SHT31;53678;39.642;22.430;2022-11-09T02:44:02;12.61;91.46
65478;SHT31;53678;39.642;22.430;2022-11-09T02:46:33;12.72;91.80
65478;SHT31;53678;39.642;22.430;2022-11-09T02:49:00;12.81;91.40
65478;SHT31;53678;39.642;22.430;2022-11-09T02:51:27;12.73;90.27
65478;SHT31;53678;39.642;22.430;2022-11-09T02:53:53;12.66;90.62
65478;SHT31;53678;39.642;22.430;2022-11-09T02:56:21;12.67;90.95
65478;SHT31;53678;39.642;22.430;2022-11-09T02:58:47;12.74;90.76
65478;SHT31;53678;39.642;22.430;2022-11-09T03:01:13;12.76;90.53
65478;SHT31;53678;39.642;22.430;2022-11-09T03:03:39;12.83;90.37
65478;SHT31;53678;39.642;22.430;2022-11-09T03:06:04;12.88;90.18
65478;SHT31;53678;39.642;22.430;2022-11-09T03:08:31;12.95;90.02
65478;SHT31;53678;39.642;22.430;2022-11-09T03:10:58;13.07;89.92
65478;SHT31;53678;39.642;22.430;2022-11-09T03:13:25;13.03;89.32
65478;SHT31;53678;39.642;22.430;2022-11-09T03:15:51;12.98;89.53
65478;SHT31;53678;39.642;22.430;2022-11-09T03:18:17;13.01;89.78
65478;SHT31;53678;39.642;22.430;2022-11-09T03:20:43;13.05;89.89
65478;SHT31;53678;39.642;22.430;2022-11-09T03:23:09;13.10;89.73
65478;SHT31;53678;39.642;22.430;2022-11-09T03:25:37;13.12;89.43
65478;SHT31;53678;39.642;22.430;2022-11-09T03:28:05;13.14;89.40
65478;SHT31;53678;39.642;22.430;2022-11-09T03:30:32;12.95;89.79
65478;SHT31;53678;39.642;22.430;2022-11-09T03:33:05;12.90;90.27
65478;SHT31;53678;39.642;22.430;2022-11-09T03:35:36;13.00;90.10
65478;SHT31;53678;39.642;22.430;2022-11-09T03:38:02;13.12;88.94
65478;SHT31;53678;39.642;22.430;2022-11-09T03:40:29;13.08;88.99
65478;SHT31;53678;39.642;22.430;2022-11-09T03:42:56;13.05;89.55
65478;SHT31;53678;39.642;22.430;2022-11-09T03:45:22;13.04;90.19
65478;SHT31;53678;39.642;22.430;2022-11-09T03:47:48;13.04;90.04
65478;SHT31;53678;39.642;22.430;2022-11-09T03:50:15;12.97;90.10
65478;SHT31;53678;39.642;22.430;2022-11-09T03:52:45;12.97;90.42
65478;SHT31;53678;39.642;22.430;2022-11-09T03:55:11;12.94;90.23
65478;SHT31;53678;39.642;22.430;2022-11-09T03:57:37;12.98;90.13
65478;SHT31;53678;39.642;22.430;2022-11-09T04:00:05;13.04;90.10
65478;SHT31;53678;39.642;22.430;2022-11-09T04:02:37;13.14;89.53
65478;SHT31;53678;39.642;22.430;2022-11-09T04:05:03;13.18;89.11
65478;SHT31;53678;39.642;22.430;2022-11-09T04:07:29;13.12;88.81
65478;SHT31;53678;39.642;22.430;2022-11-09T04:09:55;13.05;89.53
65478;SHT31;53678;39.642;22.430;2022-11-09T04:12:21;13.18;89.94
65478;SHT31;53678;39.642;22.430;2022-11-09T04:14:47;13.10;89.52
65478;SHT31;53678;39.642;22.430;2022-11-09T04:17:13;13.03;90.19
65478;SHT31;53678;39.642;22.430;2022-11-09T04:19:39;13.03;90.37
65478;SHT31;53678;39.642;22.430;2022-11-09T04:22:06;13.08;90.58
65478;SHT31;53678;39.642;22.430;2022-11-09T04:24:31;13.00;90.44
65478;SHT31;53678;39.642;22.430;2022-11-09T04:26:57;12.87;91.12
65478;SHT31;53678;39.642;22.430;2022-11-09T04:29:23;12.94;91.07
65478;SHT31;53678;39.642;22.430;2022-11-09T04:31:50;12.94;90.54
65478;SHT31;53678;39.642;22.430;2022-11-09T04:34:16;13.01;90.58
65478;SHT31;53678;39.642;22.430;2022-11-09T04:36:42;13.03;90.31
65478;SHT31;53678;39.642;22.430;2022-11-09T04:39:08;13.08;90.74
65478;SHT31;53678;39.642;22.430;2022-11-09T04:41:34;13.18;90.24
65478;SHT31;53678;39.642;22.430;2022-11-09T04:44:00;13.24;89.81
65478;SHT31;53678;39.642;22.430;2022-11-09T04:46:26;13.18;89.80
65478;SHT31;53678;39.642;22.430;2022-11-09T04:48:52;13.22;90.04
65478;SHT31;53678;39.642;22.430;2022-11-09T04:51:17;13.21;90.12
65478;SHT31;53678;39.642;22.430;2022-11-09T04:53:44;13.25;90.24
65478;SHT31;53678;39.642;22.430;2022-11-09T04:56:10;13.41;89.76
65478;SHT31;53678;39.642;22.430;2022-11-09T04:58:36;13.43;89.41
65478;SHT31;53678;39.642;22.430;2022-11-09T05:01:03;13.46;89.56
65478;SHT31;53678;39.642;22.430;2022-11-09T05:03:30;13.48;89.05
65478;SHT31;53678;39.642;22.430;2022-11-09T05:05:56;13.51;89.30
65478;SHT31;53678;39.642;22.430;2022-11-09T05:08:22;13.53;89.46
65478;SHT31;53678;39.642;22.430;2022-11-09T05:10:48;13.49;89.27
65478;SHT31;53678;39.642;22.430;2022-11-09T05:13:14;13.43;89.32
65478;SHT31;53678;39.642;22.430;2022-11-09T05:15:40;13.39;89.71
65478;SHT31;53678;39.642;22.430;2022-11-09T05:18:08;13.62;89.06
65478;SHT31;53678;39.642;22.430;2022-11-09T05:20:35;13.48;89.16
65478;SHT31;53678;39.642;22.430;2022-11-09T05:23:01;13.69;89.45
65478;SHT31;53678;39.642;22.430;2022-11-09T05:25:46;13.73;89.05
65478;SHT31;53678;39.642;22.430;2022-11-09T05:28:13;13.83;88.32
65478;SHT31;53678;39.642;22.430;2022-11-09T05:30:39;13.80;88.47
65478;SHT31;53678;39.642;22.430;2022-11-09T05:33:04;13.73;88.42
65478;SHT31;53678;39.642;22.430;2022-11-09T05:35:32;13.70;88.83
65478;SHT31;53678;39.642;22.430;2022-11-09T05:37:58;13.56;88.98
65478;SHT31;53678;39.642;22.430;2022-11-09T05:40:23;13.58;89.60
65478;SHT31;53678;39.642;22.430;2022-11-09T05:42:49;13.61;89.32
65478;SHT31;53678;39.642;22.430;2022-11-09T05:45:16;13.79;89.08
65478;SHT31;53678;39.642;22.430;2022-11-09T05:47:43;13.86;88.29
65478;SHT31;53678;39.642;22.430;2022-11-09T05:50:12;13.83;87.67
65478;SHT31;53678;39.642;22.430;2022-11-09T05:52:39;14.00;87.93
65478;SHT31;53678;39.642;22.430;2022-11-09T05:55:05;13.76;88.06
65478;SHT31;53678;39.642;22.430;2022-11-09T05:57:32;13.67;88.90
65478;SHT31;53678;39.642;22.430;2022-11-09T05:59:57;13.63;88.86
65478;SHT31;53678;39.642;22.430;2022-11-09T06:02:23;13.70;88.73
65478;SHT31;53678;39.642;22.430;2022-11-09T06:04:54;13.77;88.58
65478;SHT31;53678;39.642;22.430;2022-11-09T06:07:20;13.77;88.70
65478;SHT31;53678;39.642;22.430;2022-11-09T06:09:46;13.87;88.48
65478;SHT31;53678;39.642;22.430;2022-11-09T06:12:11;13.83;88.25
65478;SHT31;53678;39.642;22.430;2022-11-09T06:14:37;13.83;88.46
65478;SHT31;53678;39.642;22.430;2022-11-09T06:17:03;13.87;88.67
65478;SHT31;53678;39.642;22.430;2022-11-09T06:19:29;13.96;88.89
65478;SHT31;53678;39.642;22.430;2022-11-09T06:21:55;13.97;88.60
65478;SHT31;53678;39.642;22.430;2022-11-09T06:24:21;13.99;89.02
65478;SHT31;53678;39.642;22.430;2022-11-09T06:26:46;13.89;89.49
65478;SHT31;53678;39.642;22.430;2022-11-09T06:29:12;14.01;89.74
65478;SHT31;53678;39.642;22.430;2022-11-09T06:31:38;14.31;88.59
65478;SHT31;53678;39.642;22.430;2022-11-09T06:34:04;14.61;86.62
65478;SHT31;53678;39.642;22.430;2022-11-09T06:36:30;14.55;86.98
65478;SHT31;53678;39.642;22.430;2022-11-09T06:38:55;14.82;86.85
65478;SHT31;53678;39.642;22.430;2022-11-09T06:41:21;15.10;84.92
65478;SHT31;53678;39.642;22.430;2022-11-09T06:43:47;15.04;85.08
65478;SHT31;53678;39.642;22.430;2022-11-09T06:46:13;15.04;85.10
65478;SHT31;53678;39.642;22.430;2022-11-09T06:48:42;15.38;84.21
65478;SHT31;53678;39.642;22.430;2022-11-09T06:51:10;15.79;83.09
65478;SHT31;53678;39.642;22.430;2022-11-09T06:53:37;16.10;81.47
65478;SHT31;53678;39.642;22.430;2022-11-09T06:56:05;16.34;79.76
65478;SHT31;53678;39.642;22.430;2022-11-09T06:58:31;16.59;79.05
65478;SHT31;53678;39.642;22.430;2022-11-09T07:00:58;16.42;79.40
65478;SHT31;53678;39.642;22.430;2022-11-09T07:03:24;16.05;80.89
65478;SHT31;53678;39.642;22.430;2022-11-09T07:05:50;16.13;80.40
65478;SHT31;53678;39.642;22.430;2022-11-09T07:08:18;16.17;80.81
65478;SHT31;53678;39.642;22.430;2022-11-09T07:10:44;15.96;81.49
65478;SHT31;53678;39.642;22.430;2022-11-09T07:13:11;16.16;80.90
65478;SHT31;53678;39.642;22.430;2022-11-09T07:15:37;16.15;81.53
65478;SHT31;53678;39.642;22.430;2022-11-09T07:18:05;16.32;81.92
65478;SHT31;53678;39.642;22.430;2022-11-09T07:20:32;16.67;80.32
65478;SHT31;53678;39.642;22.430;2022-11-09T07:22:57;16.66;79.47
65478;SHT31;53678;39.642;22.430;2022-11-09T07:25:23;16.64;79.11
65478;SHT31;53678;39.642;22.430;2022-11-09T07:27:51;16.68;79.27
65478;SHT31;53678;39.642;22.430;2022-11-09T07:30:17;16.56;79.28
65478;SHT31;53678;39.642;22.430;2022-11-09T07:32:43;16.64;79.37
65478;SHT31;53678;39.642;22.430;2022-11-09T07:35:09;16.77;79.21
65478;SHT31;53678;39.642;22.430;2022-11-09T07:37:36;16.63;79.80
65478;SHT31;53678;39.642;22.430;2022-11-09T07:40:02;16.81;78.73
65478;SHT31;53678;39.642;22.430;2022-11-09T07:42:28;16.84;79.18
65478;SHT31;53678;39.642;22.430;2022-11-09T07:44:54;16.74;79.59
65478;SHT31;53678;39.642;22.430;2022-11-09T07:47:21;16.87;78.82
65478;SHT31;53678;39.642;22.430;2022-11-09T07:49:47;16.84;78.48
65478;SHT31;53678;39.642;22.430;2022-11-09T07:52:13;16.56;80.19
65478;SHT31;53678;39.642;22.430;2022-11-09T07:54:39;16.84;79.98
65478;SHT31;53678;39.642;22.430;2022-11-09T07:57:05;16.88;78.73
65478;SHT31;53678;39.642;22.430;2022-11-09T07:59:31;16.96;78.26
65478;SHT31;53678;39.642;22.430;2022-11-09T08:01:57;16.67;79.58
65478;SHT31;53678;39.642;22.430;2022-11-09T08:04:24;16.81;79.19
65478;SHT31;53678;39.642;22.430;2022-11-09T08:06:53;17.08;78.86
65478;SHT31;53678;39.642;22.430;2022-11-09T08:09:19;17.11;78.42
65478;SHT31;53678;39.642;22.430;2022-11-09T08:11:45;17.35;78.20
65478;SHT31;53678;39.642;22.430;2022-11-09T08:14:11;17.02;79.49
65478;SHT31;53678;39.642;22.430;2022-11-09T08:16:37;17.56;77.55
65478;SHT31;53678;39.642;22.430;2022-11-09T08:19:03;16.89;80.01
65478;SHT31;53678;39.642;22.430;2022-11-09T08:21:29;17.18;79.56
65478;SHT31;53678;39.642;22.430;2022-11-09T08:23:55;17.53;78.68
65478;SHT31;53678;39.642;22.430;2022-11-09T08:26:21;17.76;78.35
65478;SHT31;53678;39.642;22.430;2022-11-09T08:28:46;17.52;78.05
65478;SHT31;53678;39.642;22.430;2022-11-09T08:31:12;17.66;77.91
65478;SHT31;53678;39.642;22.430;2022-11-09T08:33:40;17.50;78.31
65478;SHT31;53678;39.642;22.430;2022-11-09T08:36:15;17.32;79.20
65478;SHT31;53678;39.642;22.430;2022-11-09T08:38:42;17.38;78.88
65478;SHT31;53678;39.642;22.430;2022-11-09T08:41:09;17.26;78.95
65478;SHT31;53678;39.642;22.430;2022-11-09T08:43:35;17.39;78.81
65478;SHT31;53678;39.642;22.430;2022-11-09T08:46:01;17.00;80.32
65478;SHT31;53678;39.642;22.430;2022-11-09T08:48:27;17.38;79.49
65478;SHT31;53678;39.642;22.430;2022-11-09T08:50:55;17.69;77.83
65478;SHT31;53678;39.642;22.430;2022-11-09T08:53:22;17.87;77.56
65478;SHT31;53678;39.642;22.430;2022-11-09T08:55:48;18.04;77.36
65478;SHT31;53678;39.642;22.430;2022-11-09T08:58:14;18.08;77.59
65478;SHT31;53678;39.642;22.430;2022-11-09T09:00:40;18.18;76.89
65478;SHT31;53678;39.642;22.430;2022-11-09T09:03:06;18.22;77.04
65478;SHT31;53678;39.642;22.430;2022-11-09T09:05:33;18.38;75.84
65478;SHT31;53678;39.642;22.430;2022-11-09T09:08:00;18.24;75.77
65478;SHT31;53678;39.642;22.430;2022-11-09T09:10:26;18.48;75.63
65478;SHT31;53678;39.642;22.430;2022-11-09T09:12:55;18.80;74.12
65478;SHT31;53678;39.642;22.430;2022-11-09T09:15:21;18.82;73.17
65478;SHT31;53678;39.642;22.430;2022-11-09T09:17:48;18.88;73.06
65478;SHT31;53678;39.642;22.430;2022-11-09T09:20:14;18.82;73.49
65478;SHT31;53678;39.642;22.430;2022-11-09T09:22:41;18.86;73.11
65478;SHT31;53678;39.642;22.430;2022-11-09T09:25:08;18.72;73.57
65478;SHT31;53678;39.642;22.430;2022-11-09T09:27:34;18.88;72.72
65478;SHT31;53678;39.642;22.430;2022-11-09T09:30:00;18.93;73.25
65478;SHT31;53678;39.642;22.430;2022-11-09T09:32:26;18.85;72.50
65478;SHT31;53678;39.642;22.430;2022-11-09T09:34:51;18.65;72.86
65478;SHT31;53678;39.642;22.430;2022-11-09T09:37:17;18.52;73.51
65478;SHT31;53678;39.642;22.430;2022-11-09T09:39:43;18.49;73.64
65478;SHT31;53678;39.642;22.430;2022-11-09T09:42:21;18.53;73.81
65478;SHT31;53678;39.642;22.430;2022-11-09T09:44:59;18.83;73.46
65478;SHT31;53678;39.642;22.430;2022-11-09T09:50:22;18.95;72.86
65478;SHT31;53678;39.642;22.430;2022-11-09T09:53:11;19.14;72.46
65478;SHT31;53678;39.642;22.430;2022-11-09T09:55:42;19.31;71.34
65478;SHT31;53678;39.642;22.430;2022-11-09T09:58:25;19.09;71.43
65478;SHT31;53678;39.642;22.430;2022-11-09T10:00:57;19.16;72.00
65478;SHT31;53678;39.642;22.430;2022-11-09T10:03:24;19.16;71.48
65478;SHT31;53678;39.642;22.430;2022-11-09T10:08:57;19.17;69.79
65478;SHT31;53678;39.642;22.430;2022-11-09T10:14:28;18.69;71.31
65478;SHT31;53678;39.642;22.430;2022-11-09T10:17:30;18.55;72.09
65478;SHT31;53678;39.642;22.430;2022-11-09T10:25:05;19.20;69.59
65478;SHT31;53678;39.642;22.430;2022-11-09T10:27:36;19.39;69.74
65478;SHT31;53678;39.642;22.430;2022-11-09T10:30:16;19.43;69.96
65478;SHT31;53678;39.642;22.430;2022-11-09T10:32:45;19.62;69.65
65478;SHT31;53678;39.642;22.430;2022-11-09T10:37:43;19.68;68.64
65478;SHT31;53678;39.642;22.430;2022-11-09T10:43:01;19.69;68.25
65478;SHT31;53678;39.642;22.430;2022-11-09T10:46:00;19.50;68.77
65478;SHT31;53678;39.642;22.430;2022-11-09T10:48:47;19.57;69.51
65478;SHT31;53678;39.642;22.430;2022-11-09T10:51:40;19.75;68.01
65478;SHT31;53678;39.642;22.430;2022-11-09T10:54:28;19.27;69.39
65478;SHT31;53678;39.642;22.430;2022-11-09T10:57:19;18.72;70.41
65478;SHT31;53678;39.642;22.430;2022-11-09T11:00:04;18.96;69.57
65478;SHT31;53678;39.642;22.430;2022-11-09T11:02:56;19.35;68.84
65478;SHT31;53678;39.642;22.430;2022-11-09T11:05:40;19.62;67.84
65478;SHT31;53678;39.642;22.430;2022-11-09T11:08:44;19.88;67.08
65478;SHT31;53678;39.642;22.430;2022-11-09T11:11:33;20.16;65.90
65478;SHT31;53678;39.642;22.430;2022-11-09T11:14:29;19.99;66.51
65478;SHT31;53678;39.642;22.430;2022-11-09T11:17:33;19.79;67.00
65478;SHT31;53678;39.642;22.430;2022-11-09T11:20:31;20.05;66.15
65478;SHT31;53678;39.642;22.430;2022-11-09T11:23:21;19.76;66.70
65478;SHT31;53678;39.642;22.430;2022-11-09T11:31:56;20.12;65.16
65478;SHT31;53678;39.642;22.430;2022-11-09T11:34:40;20.19;65.22
65478;SHT31;53678;39.642;22.430;2022-11-09T11:44:58;20.05;64.57
65478;SHT31;53678;39.642;22.430;2022-11-09T11:47:18;19.96;64.17
65478;SHT31;53678;39.642;22.430;2022-11-09T11:50:39;20.19;63.33
65478;SHT31;53678;39.642;22.430;2022-11-09T12:23:13;19.92;64.00
65478;SHT31;53678;39.642;22.430;2022-11-09T12:41:42;20.19;64.51
65478;SHT31;53678;39.642;22.430;2022-11-09T12:44:34;20.16;64.14
65478;SHT31;53678;39.642;22.430;2022-11-09T12:47:27;20.10;63.95
65478;SHT31;53678;39.642;22.430;2022-11-09T12:50:17;20.04;64.79
65478;SHT31;53678;39.642;22.430;2022-11-09T12:53:03;19.89;65.18
65478;SHT31;53678;39.642;22.430;2022-11-09T12:58:42;19.96;65.30
65478;SHT31;53678;39.642;22.430;2022-11-09T13:04:19;20.12;64.46
65478;SHT31;53678;39.642;22.430;2022-11-09T13:09:53;19.81;65.61
65478;SHT31;53678;39.642;22.430;2022-11-09T13:12:39;19.89;65.42
65478;SHT31;53678;39.642;22.430;2022-11-09T13:15:27;19.79;64.94
65478;SHT31;53678;39.642;22.430;2022-11-09T13:18:45;19.79;64.57
65478;SHT31;53678;39.642;22.430;2022-11-09T13:21:33;19.79;65.28
65478;SHT31;53678;39.642;22.430;2022-11-09T13:33:19;19.72;64.90
65478;SHT31;53678;39.642;22.430;2022-11-09T13:36:15;19.54;64.19
65478;SHT31;53678;39.642;22.430;2022-11-09T13:39:25;19.48;64.55
65478;SHT31;53678;39.642;22.430;2022-11-09T13:42:33;19.46;65.67
65478;SHT31;53678;39.642;22.430;2022-11-09T13:45:35;19.38;67.04
65478;SHT31;53678;39.642;22.430;2022-11-09T13:48:44;19.35;67.11
65478;SHT31;53678;39.642;22.430;2022-11-09T13:57:12;19.13;68.24
65478;SHT31;53678;39.642;22.430;2022-11-09T13:59:58;19.16;67.51
65478;SHT31;53678;39.642;22.430;2022-11-09T14:02:51;19.10;67.53
65478;SHT31;53678;39.642;22.430;2022-11-09T14:05:36;19.09;67.89
65478;SHT31;53678;39.642;22.430;2022-11-09T14:08:33;18.90;68.58
65478;SHT31;53678;39.642;22.430;2022-11-09T14:11:42;18.92;68.30
65478;SHT31;53678;39.642;22.430;2022-11-09T14:21:25;18.70;67.83
65478;SHT31;53678;39.642;22.430;2022-11-09T14:27:21;18.42;68.52
65478;SHT31;53678;39.642;22.430;2022-11-09T14:30:17;18.32;69.16
65478;SHT31;53678;39.642;22.430;2022-11-09T14:33:22;18.44;69.16
65478;SHT31;53678;39.642;22.430;2022-11-09T14:36:10;18.45;69.38
65478;SHT31;53678;39.642;22.430;2022-11-09T14:38:55;18.45;69.49
65478;SHT31;53678;39.642;22.430;2022-11-09T14:41:42;18.59;69.43
65478;SHT31;53678;39.642;22.430;2022-11-09T14:44:41;18.45;69.42
65478;SHT31;53678;39.642;22.430;2022-11-09T14:47:30;18.45;69.94
65478;SHT31;53678;39.642;22.430;2022-11-09T14:50:21;18.45;69.92
65478;SHT31;53678;39.642;22.430;2022-11-09T14:53:06;18.44;70.25
65478;SHT31;53678;39.642;22.430;2022-11-09T14:55:53;18.31;70.88
65478;SHT31;53678;39.642;22.430;2022-11-09T14:58:41;18.22;71.31
65478;SHT31;53678;39.642;22.430;2022-11-09T15:01:26;18.20;71.97
65478;SHT31;53678;39.642;22.430;2022-11-09T15:04:14;18.08;72.15
65478;SHT31;53678;39.642;22.430;2022-11-09T15:07:12;18.04;72.63
65478;SHT31;53678;39.642;22.430;2022-11-09T15:10:01;18.00;72.74
65478;SHT31;53678;39.642;22.430;2022-11-09T15:12:48;17.87;73.03
65478;SHT31;53678;39.642;22.430;2022-11-09T15:15:34;17.90;73.16
65478;SHT31;53678;39.642;22.430;2022-11-09T15:18:28;17.84;74.47
65478;SHT31;53678;39.642;22.430;2022-11-09T15:21:14;17.91;75.38
65478;SHT31;53678;39.642;22.430;2022-11-09T15:26:54;17.49;79.04
65478;SHT31;53678;39.642;22.430;2022-11-09T15:29:41;17.50;79.36
65478;SHT31;53678;39.642;22.430;2022-11-09T15:32:26;17.42;79.70
65478;SHT31;53678;39.642;22.430;2022-11-09T15:35:16;17.35;80.18
65478;SHT31;53678;39.642;22.430;2022-11-09T15:38:01;17.39;80.34
65478;SHT31;53678;39.642;22.430;2022-11-09T15:40:46;17.14;81.00
65478;SHT31;53678;39.642;22.430;2022-11-09T15:43:30;17.14;81.46
65478;SHT31;53678;39.642;22.430;2022-11-09T15:46:18;17.00;81.75
65478;SHT31;53678;39.642;22.430;2022-11-09T15:49:17;16.77;82.49
65478;SHT31;53678;39.642;22.430;2022-11-09T15:52:02;16.89;82.47
65478;SHT31;53678;39.642;22.430;2022-11-09T15:54:46;16.77;82.43
65478;SHT31;53678;39.642;22.430;2022-11-09T15:57:31;16.68;82.55
65478;SHT31;53678;39.642;22.430;2022-11-09T16:00:17;16.77;82.40
65478;SHT31;53678;39.642;22.430;2022-11-09T16:06:20;16.63;82.84
65478;SHT31;53678;39.642;22.430;2022-11-09T16:09:10;16.56;83.01
65478;SHT31;53678;39.642;22.430;2022-11-09T16:11:54;16.54;82.88
65478;SHT31;53678;39.642;22.430;2022-11-09T16:14:39;16.46;83.27
65478;SHT31;53678;39.642;22.430;2022-11-09T16:17:23;16.27;83.75
65478;SHT31;53678;39.642;22.430;2022-11-09T16:20:08;16.39;83.52
65478;SHT31;53678;39.642;22.430;2022-11-09T16:22:53;16.29;83.94
65478;SHT31;53678;39.642;22.430;2022-11-09T16:25:37;16.36;84.08
65478;SHT31;53678;39.642;22.430;2022-11-09T16:28:22;16.34;84.09
65478;SHT31;53678;39.642;22.430;2022-11-09T16:31:07;16.33;83.66
65478;SHT31;53678;39.642;22.430;2022-11-09T16:37:13;16.26;84.52
65478;SHT31;53678;39.642;22.430;2022-11-09T16:40:16;16.27;84.32
65478;SHT31;53678;39.642;22.430;2022-11-09T16:43:00;16.33;84.37
65478;SHT31;53678;39.642;22.430;2022-11-09T16:45:47;16.16;84.95
65478;SHT31;53678;39.642;22.430;2022-11-09T16:48:33;16.15;85.21
65478;SHT31;53678;39.642;22.430;2022-11-09T16:51:18;16.19;85.22
65478;SHT31;53678;39.642;22.430;2022-11-09T16:54:02;16.22;84.82
65478;SHT31;53678;39.642;22.430;2022-11-09T16:56:47;16.15;85.36
65478;SHT31;53678;39.642;22.430;2022-11-09T16:59:31;16.10;85.70
65478;SHT31;53678;39.642;22.430;2022-11-09T17:02:16;15.98;85.97
65478;SHT31;53678;39.642;22.430;2022-11-09T17:05:00;15.92;86.25
65478;SHT31;53678;39.642;22.430;2022-11-09T17:07:48;15.99;86.24
65478;SHT31;53678;39.642;22.430;2022-11-09T17:10:33;15.92;86.18
65478;SHT31;53678;39.642;22.430;2022-11-09T17:13:17;15.88;86.24
65478;SHT31;53678;39.642;22.430;2022-11-09T17:16:04;15.98;86.00
65478;SHT31;53678;39.642;22.430;2022-11-09T17:18:54;16.04;85.92
65478;SHT31;53678;39.642;22.430;2022-11-09T17:21:39;15.98;86.00
65478;SHT31;53678;39.642;22.430;2022-11-09T17:24:24;16.09;85.85
65478;SHT31;53678;39.642;22.430;2022-11-09T17:27:09;16.02;85.80
65478;SHT31;53678;39.642;22.430;2022-11-09T17:29:54;15.99;86.24
65478;SHT31;53678;39.642;22.430;2022-11-09T17:32:39;15.96;86.24
65478;SHT31;53678;39.642;22.430;2022-11-09T17:35:24;15.88;86.52
65478;SHT31;53678;39.642;22.430;2022-11-09T17:38:08;15.91;86.40
65478;SHT31;53678;39.642;22.430;2022-11-09T17:41:00;15.91;86.42
65478;SHT31;53678;39.642;22.430;2022-11-09T17:43:44;15.96;86.52
65478;SHT31;53678;39.642;22.430;2022-11-09T17:46:29;15.99;86.35
65478;SHT31;53678;39.642;22.430;2022-11-09T17:49:14;16.19;85.87
65478;SHT31;53678;39.642;22.430;2022-11-09T17:52:17;16.23;85.37
65478;SHT31;53678;39.642;22.430;2022-11-09T17:55:01;16.23;85.77
65478;SHT31;53678;39.642;22.430;2022-11-09T17:57:45;16.19;85.70
65478;SHT31;53678;39.642;22.430;2022-11-09T18:00:30;16.15;85.56
65478;SHT31;53678;39.642;22.430;2022-11-09T18:03:15;16.19;85.63